createdAt,value
2019-03-28T00:04:03.781Z,101839.75
2019-03-28T00:06:33.637Z,101839.39
2019-03-28T00:09:03.543Z,101839.80
2019-03-28T00:11:33.427Z,101835.28
2019-03-28T00:14:03.296Z,101840.83
2019-03-28T00:16:33.166Z,101843.87
2019-03-28T00:19:03.043Z,101812.90
2019-03-28T00:21:32.872Z,101843.31
2019-03-28T00:24:22.281Z,101835.78
2019-03-28T00:26:52.130Z,101839.84
2019-03-28T00:29:21.881Z,101810.14
2019-03-28T00:31:51.806Z,101833.70
2019-03-28T00:34:21.716Z,101834.20
2019-03-28T00:36:51.681Z,101832.04
2019-03-28T00:39:21.612Z,101832.33
2019-03-28T00:41:52.432Z,101837.33
2019-03-28T00:44:22.287Z,101831.84
2019-03-28T00:46:52.192Z,101827.05
2019-03-28T00:49:22.420Z,101828.43
2019-03-28T00:51:52.317Z,101827.13
2019-03-28T00:54:22.253Z,101824.16
2019-03-28T00:56:52.170Z,101824.17
2019-03-28T00:59:40.807Z,101824.93
2019-03-28T01:02:10.796Z,101819.93
2019-03-28T01:04:40.658Z,101824.31
2019-03-28T01:07:10.523Z,101824.84
2019-03-28T01:09:40.489Z,101830.37
2019-03-28T01:12:10.523Z,101833.97
2019-03-28T01:14:40.788Z,101821.72
2019-03-28T01:17:10.628Z,101828.16
2019-03-28T01:19:40.597Z,101834.91
2019-03-28T01:22:10.868Z,101832.06
2019-03-28T01:24:40.766Z,101832.58
2019-03-28T01:27:10.631Z,101832.95
2019-03-28T01:29:40.505Z,101830.63
2019-03-28T01:32:10.382Z,101833.34
2019-03-28T01:34:40.261Z,101826.28
2019-03-28T01:37:10.132Z,101828.48
2019-03-28T01:39:40.045Z,101825.31
2019-03-28T01:42:09.936Z,101818.94
2019-03-28T01:44:39.863Z,101819.44
2019-03-28T01:47:09.724Z,101820.28
2019-03-28T01:49:39.902Z,101816.64
2019-03-28T01:52:09.759Z,101812.27
2019-03-28T01:54:39.807Z,101809.09
2019-03-28T01:57:11.506Z,101806.25
2019-03-28T02:02:18.315Z,101802.73
2019-03-28T02:04:48.266Z,101806.94
2019-03-28T02:07:18.129Z,101810.97
2019-03-28T02:09:47.982Z,101815.03
2019-03-28T02:12:17.906Z,101809.48
2019-03-28T02:14:47.947Z,101815.37
2019-03-28T02:17:17.815Z,101817.73
2019-03-28T02:19:47.705Z,101813.05
2019-03-28T02:22:17.549Z,101814.06
2019-03-28T02:24:47.341Z,101811.70
2019-03-28T02:27:23.862Z,101804.66
2019-03-28T02:29:48.697Z,101811.88
2019-03-28T02:32:18.599Z,101812.72
2019-03-28T02:34:49.163Z,101814.73
2019-03-28T02:37:21.009Z,101814.89
2019-03-28T02:39:50.988Z,101815.37
2019-03-28T02:42:20.903Z,101804.92
2019-03-28T02:44:50.700Z,101812.97
2019-03-28T02:47:41.404Z,101812.13
2019-03-28T02:50:11.587Z,101809.27
2019-03-28T02:52:43.451Z,101808.58
2019-03-28T02:55:13.353Z,101808.05
2019-03-28T02:57:44.067Z,101814.25
2019-03-28T03:05:38.350Z,101816.13
2019-03-28T03:08:08.466Z,101785.73
2019-03-28T03:10:38.672Z,101807.19
2019-03-28T03:13:08.659Z,101784.05
2019-03-28T03:15:38.669Z,101809.36
2019-03-28T03:18:08.633Z,101812.50
2019-03-28T03:20:38.773Z,101819.91
2019-03-28T03:23:08.686Z,101819.54
2019-03-28T03:25:40.710Z,101816.14
2019-03-28T03:28:10.641Z,101815.50
2019-03-28T03:30:41.386Z,101808.25
2019-03-28T03:33:11.309Z,101815.16
2019-03-28T03:35:41.250Z,101824.67
2019-03-28T03:38:11.189Z,101817.11
2019-03-28T03:40:41.091Z,101819.09
2019-03-28T03:43:10.974Z,101820.41
2019-03-28T03:45:42.992Z,101815.08
2019-03-28T03:48:12.931Z,101814.58
2019-03-28T03:50:43.475Z,101823.98
2019-03-28T03:53:13.380Z,101815.58
2019-03-28T03:55:43.209Z,101826.86
2019-03-28T03:58:16.009Z,101819.14
2019-03-28T04:00:44.844Z,101829.52
2019-03-28T04:03:15.144Z,101823.17
2019-03-28T04:05:45.142Z,101827.36
2019-03-28T04:08:14.997Z,101829.05
2019-03-28T04:10:44.997Z,101834.22
2019-03-28T04:13:14.888Z,101843.31
2019-03-28T04:15:44.779Z,101848.30
2019-03-28T04:18:14.684Z,101853.96
2019-03-28T04:20:44.555Z,101857.63
2019-03-28T04:23:14.530Z,101855.43
2019-03-28T04:25:44.481Z,101848.83
2019-03-28T04:28:24.749Z,101849.83
2019-03-28T04:30:45.918Z,101853.84
2019-03-28T04:33:15.774Z,101850.45
2019-03-28T04:35:45.766Z,101846.92
2019-03-28T04:38:15.652Z,101854.14
2019-03-28T04:40:45.645Z,101851.08
2019-03-28T04:43:15.560Z,101855.27
2019-03-28T04:45:45.553Z,101857.11
2019-03-28T04:48:15.444Z,101851.80
2019-03-28T04:50:45.337Z,101856.18
2019-03-28T04:53:15.278Z,101858.18
2019-03-28T04:55:45.041Z,101860.87
2019-03-28T04:58:14.808Z,101862.00
2019-03-28T05:00:44.593Z,101862.66
2019-03-28T05:03:14.377Z,101861.15
2019-03-28T05:05:44.221Z,101864.66
2019-03-28T05:08:13.973Z,101866.49
2019-03-28T05:10:43.855Z,101869.69
2019-03-28T05:13:13.656Z,101873.87
2019-03-28T05:15:43.475Z,101874.61
2019-03-28T05:18:13.266Z,101881.98
2019-03-28T05:20:43.062Z,101884.80
2019-03-28T05:23:12.829Z,101879.19
2019-03-28T05:25:43.170Z,101882.41
2019-03-28T05:28:13.079Z,101875.80
2019-03-28T05:30:43.295Z,101881.88
2019-03-28T05:33:17.676Z,101882.84
2019-03-28T05:35:47.479Z,101882.15
2019-03-28T05:38:17.536Z,101888.53
2019-03-28T05:40:47.369Z,101888.88
2019-03-28T05:43:17.145Z,101889.14
2019-03-28T05:45:47.669Z,101893.17
2019-03-28T05:48:18.427Z,101889.14
2019-03-28T05:50:48.266Z,101897.53
2019-03-28T05:53:18.028Z,101899.67
2019-03-28T05:55:47.823Z,101903.83
2019-03-28T05:58:17.574Z,101903.12
2019-03-28T06:00:51.190Z,101899.25
2019-03-28T06:06:11.313Z,101902.09
2019-03-28T06:08:41.322Z,101908.13
2019-03-28T06:11:11.367Z,101905.34
2019-03-28T06:13:41.278Z,101917.76
2019-03-28T06:16:11.191Z,101911.69
2019-03-28T06:18:41.386Z,101913.84
2019-03-28T06:21:11.274Z,101918.67
2019-03-28T06:23:41.227Z,101916.12
2019-03-28T06:26:11.722Z,101921.77
2019-03-28T06:28:41.617Z,101926.80
2019-03-28T06:31:11.596Z,101928.61
2019-03-28T06:33:41.553Z,101929.84
2019-03-28T06:36:11.458Z,101928.39
2019-03-28T06:38:41.340Z,101927.02
2019-03-28T06:41:11.584Z,101920.95
2019-03-28T06:43:42.177Z,101925.67
2019-03-28T06:46:13.140Z,101920.97
2019-03-28T06:48:43.335Z,101914.17
2019-03-28T06:51:13.180Z,101913.83
2019-03-28T06:53:43.086Z,101911.72
2019-03-28T06:56:13.025Z,101909.00
2019-03-28T06:58:42.893Z,101913.43
2019-03-28T07:01:12.745Z,101910.00
2019-03-28T07:03:42.608Z,101907.16
2019-03-28T07:06:12.463Z,101917.47
2019-03-28T07:08:42.332Z,101906.19
2019-03-28T07:11:12.304Z,101905.19
2019-03-28T07:13:42.229Z,101907.52
2019-03-28T07:16:12.173Z,101908.03
2019-03-28T07:18:42.043Z,101901.91
2019-03-28T07:21:11.978Z,101902.89
2019-03-28T07:23:42.192Z,101902.66
2019-03-28T07:26:12.002Z,101899.54
2019-03-28T07:28:41.955Z,101891.19
2019-03-28T07:31:12.598Z,101889.59
2019-03-28T07:33:43.425Z,101885.52
2019-03-28T07:36:13.285Z,101879.16
2019-03-28T07:38:43.156Z,101884.44
2019-03-28T07:41:13.063Z,101887.65
2019-03-28T07:43:44.926Z,101891.13
2019-03-28T07:46:33.746Z,101888.43
2019-03-28T07:49:03.585Z,101888.16
2019-03-28T07:51:33.480Z,101876.80
2019-03-28T07:56:44.746Z,101871.98
2019-03-28T07:59:14.614Z,101870.30
2019-03-28T08:01:44.549Z,101871.55
2019-03-28T08:06:50.456Z,101879.88
2019-03-28T08:09:21.465Z,101877.30
2019-03-28T08:11:51.400Z,101880.46
2019-03-28T08:14:21.341Z,101836.38
2019-03-28T08:16:51.268Z,101886.48
2019-03-28T08:19:21.156Z,101880.81
2019-03-28T08:21:51.043Z,101886.16
2019-03-28T08:24:20.862Z,101886.73
2019-03-28T08:26:50.693Z,101887.17
2019-03-28T08:29:20.570Z,101893.44
2019-03-28T08:34:41.794Z,101886.91
2019-03-28T08:40:04.345Z,101896.23
2019-03-28T08:42:34.243Z,101898.97
2019-03-28T08:45:04.351Z,101902.29
2019-03-28T08:47:34.924Z,101906.45
2019-03-28T08:50:06.326Z,101907.09
2019-03-28T09:25:59.122Z,101931.71
2019-03-28T09:28:39.582Z,101927.23
2019-03-28T09:31:19.939Z,101926.17
2019-03-28T09:40:38.859Z,101938.53
2019-03-28T09:43:08.938Z,101937.86
2019-03-28T09:45:38.774Z,101941.86
2019-03-28T09:48:11.678Z,101942.05
2019-03-28T09:50:40.440Z,101949.73
2019-03-28T09:53:10.294Z,101954.68
2019-03-28T09:55:40.071Z,101960.89
2019-03-28T09:58:09.838Z,101965.84
2019-03-28T10:00:39.712Z,101958.95
2019-03-28T10:03:09.645Z,101954.19
2019-03-28T10:05:39.436Z,101958.91
2019-03-28T10:08:29.676Z,101950.96
2019-03-28T10:10:59.474Z,101960.48
2019-03-28T10:13:48.918Z,101959.24
2019-03-28T10:16:18.704Z,101956.23
2019-03-28T10:18:48.515Z,101956.23
2019-03-28T10:21:18.297Z,101949.22
2019-03-28T10:23:48.085Z,101947.56
2019-03-28T10:26:17.890Z,101953.12
2019-03-28T10:28:47.730Z,101947.55
2019-03-28T10:31:36.323Z,101949.06
2019-03-28T10:34:06.511Z,101955.28
2019-03-28T10:36:36.272Z,101961.16
2019-03-28T10:39:45.830Z,101966.27
2019-03-28T10:42:15.633Z,101963.09
2019-03-28T10:44:45.550Z,101971.36
2019-03-28T10:47:15.353Z,101967.19
2019-03-28T10:49:45.201Z,101971.07
2019-03-28T10:52:14.983Z,101963.50
2019-03-28T10:54:44.773Z,101966.08
2019-03-28T10:57:28.895Z,101965.54
2019-03-28T10:59:46.046Z,101973.32
2019-03-28T11:02:15.916Z,101978.58
2019-03-28T11:04:45.675Z,101975.86
2019-03-28T11:07:15.480Z,101976.33
2019-03-28T11:09:45.311Z,101973.30
2019-03-28T11:12:15.097Z,101976.77
2019-03-28T11:14:46.399Z,101977.55
2019-03-28T11:17:16.384Z,101990.26
2019-03-28T11:19:46.432Z,101989.20
2019-03-28T11:22:16.216Z,102001.52
2019-03-28T11:25:05.164Z,102011.89
2019-03-28T11:27:34.945Z,102013.94
2019-03-28T11:30:04.948Z,102020.59
2019-03-28T11:32:35.993Z,102030.05
2019-03-28T11:35:07.037Z,102027.60
2019-03-28T11:37:36.976Z,102033.67
2019-03-28T11:40:27.921Z,102031.55
2019-03-28T11:42:57.770Z,102029.10
2019-03-28T11:45:27.574Z,102026.64
2019-03-28T11:47:57.820Z,102017.09
2019-03-28T11:50:27.639Z,102017.38
2019-03-28T11:52:57.452Z,102016.37
2019-03-28T11:55:28.337Z,102020.75
2019-03-28T12:00:51.409Z,102017.75
2019-03-28T12:03:21.952Z,102010.52
2019-03-28T12:05:53.182Z,102008.69
2019-03-28T12:08:25.080Z,102007.27
2019-03-28T12:10:57.489Z,101999.97
2019-03-28T12:16:24.407Z,102005.39
2019-03-28T12:18:55.273Z,102003.16
2019-03-28T12:21:26.280Z,102005.27
2019-03-28T12:23:58.132Z,102011.59
2019-03-28T12:26:28.502Z,102003.75
2019-03-28T12:28:58.375Z,102011.59
2019-03-28T12:31:28.398Z,102007.98
2019-03-28T12:33:58.511Z,102009.87
2019-03-28T12:36:28.314Z,102003.41
2019-03-28T12:38:58.727Z,102014.53
2019-03-28T12:41:28.509Z,102015.78
2019-03-28T12:43:58.261Z,102007.69
2019-03-28T12:46:28.062Z,102009.11
2019-03-28T12:48:57.811Z,102014.53
2019-03-28T12:51:27.628Z,102006.80
2019-03-28T12:53:57.409Z,102010.41
2019-03-28T12:56:27.205Z,102014.62
2019-03-28T12:58:56.974Z,102003.66
2019-03-28T13:01:26.776Z,102003.29
2019-03-28T13:03:58.948Z,101995.42
2019-03-28T13:06:28.752Z,102003.73
2019-03-28T13:08:58.526Z,101993.38
2019-03-28T13:11:28.331Z,101996.42
2019-03-28T13:13:58.127Z,101998.26
2019-03-28T13:16:28.748Z,101994.19
2019-03-28T13:18:58.519Z,101992.09
2019-03-28T13:21:47.118Z,101985.91
2019-03-28T13:24:16.910Z,101988.22
2019-03-28T13:26:46.777Z,101983.27
2019-03-28T13:29:16.595Z,101983.89
2019-03-28T13:31:46.365Z,101984.81
2019-03-28T13:34:16.170Z,101980.80
2019-03-28T13:36:46.333Z,101983.29
2019-03-28T13:39:16.138Z,101973.14
2019-03-28T13:41:46.187Z,101977.96
2019-03-28T13:44:18.055Z,101978.32
2019-03-28T13:46:47.839Z,101972.49
2019-03-28T13:49:17.674Z,101964.96
2019-03-28T13:51:47.483Z,101966.66
2019-03-28T13:54:17.292Z,101969.31
2019-03-28T13:56:47.090Z,101976.52
2019-03-28T13:59:16.874Z,101978.07
2019-03-28T14:01:46.730Z,101974.17
2019-03-28T14:04:16.936Z,101976.66
2019-03-28T14:06:46.722Z,101978.29
2019-03-28T14:09:16.873Z,101973.48
2019-03-28T14:11:57.859Z,101974.02
2019-03-28T14:14:27.617Z,101966.36
2019-03-28T14:16:57.461Z,101967.61
2019-03-28T14:19:27.244Z,101963.26
2019-03-28T14:21:57.063Z,101962.13
2019-03-28T14:24:27.137Z,101963.20
2019-03-28T14:26:56.912Z,101966.64
2019-03-28T14:29:29.737Z,101963.80
2019-03-28T14:31:59.903Z,101965.19
2019-03-28T14:34:30.780Z,101959.37
2019-03-28T14:39:55.927Z,101960.93
2019-03-28T14:42:26.304Z,101948.48
2019-03-28T14:44:56.556Z,101950.50
2019-03-28T14:47:28.528Z,101950.30
2019-03-28T14:49:58.517Z,101948.77
2019-03-28T14:52:28.390Z,101948.22
2019-03-28T14:55:01.357Z,101949.91
2019-03-28T15:01:12.688Z,101941.64
2019-03-28T15:03:43.675Z,101941.59
2019-03-28T15:06:15.305Z,101940.61
2019-03-28T15:08:45.218Z,101937.63
2019-03-28T15:11:15.159Z,101937.94
2019-03-28T15:13:45.597Z,101939.52
2019-03-28T15:16:16.406Z,101942.95
2019-03-28T15:18:46.407Z,101936.42
2019-03-28T15:21:17.463Z,101926.13
2019-03-28T15:23:48.378Z,101923.24
2019-03-28T15:26:18.406Z,101921.28
2019-03-28T15:28:48.399Z,101927.31
2019-03-28T15:34:31.029Z,101914.17
2019-03-28T15:37:01.133Z,101909.08
2019-03-28T15:39:31.723Z,101913.41
2019-03-28T15:42:01.986Z,101910.96
2019-03-28T15:44:32.171Z,101900.66
2019-03-28T15:47:02.053Z,101905.10
2019-03-28T15:49:32.349Z,101912.48
2019-03-28T15:57:32.861Z,101906.41
2019-03-28T16:00:02.978Z,101914.52
2019-03-28T16:02:33.006Z,101910.23
2019-03-28T16:05:03.304Z,101907.56
2019-03-28T16:07:33.661Z,101907.75
2019-03-28T16:10:04.299Z,101907.27
2019-03-28T16:12:40.622Z,101901.08
2019-03-28T16:15:11.368Z,101907.17
2019-03-28T16:17:41.307Z,101907.85
2019-03-28T16:20:32.239Z,101902.00
2019-03-28T16:23:02.558Z,101899.17
2019-03-28T16:25:33.625Z,101894.41
2019-03-28T16:28:03.557Z,101895.92
2019-03-28T16:30:52.452Z,101888.05
2019-03-28T16:36:16.063Z,101892.91
2019-03-28T16:38:46.182Z,101899.27
2019-03-28T16:41:16.138Z,101895.57
2019-03-28T16:54:44.521Z,101903.70
2019-03-28T16:57:15.841Z,101900.39
2019-03-28T16:59:45.752Z,101899.40
2019-03-28T17:02:15.611Z,101903.48
2019-03-28T17:04:46.733Z,101903.20
2019-03-28T17:07:16.856Z,101898.67
2019-03-28T17:10:07.454Z,101901.92
2019-03-28T17:18:41.884Z,101899.06
2019-03-28T17:21:11.956Z,101890.59
2019-03-28T17:23:42.249Z,101896.55
2019-03-28T17:26:12.301Z,101883.46
2019-03-28T17:28:42.096Z,101879.84
2019-03-28T17:31:11.862Z,101889.07
2019-03-28T17:33:41.665Z,101894.56
2019-03-28T17:36:11.523Z,101891.98
2019-03-28T17:38:41.285Z,101896.25
2019-03-28T17:41:11.202Z,101886.58
2019-03-28T17:43:41.842Z,101889.22
2019-03-28T17:46:12.663Z,101896.22
2019-03-28T17:48:42.393Z,101892.28
2019-03-28T17:51:12.152Z,101896.79
2019-03-28T17:53:42.224Z,101897.08
2019-03-28T17:56:11.996Z,101891.78
2019-03-28T17:58:42.084Z,101903.08
2019-03-28T18:01:11.844Z,101898.30
2019-03-28T18:03:41.709Z,101891.73
2019-03-28T18:06:11.449Z,101896.81
2019-03-28T18:08:41.597Z,101893.62
2019-03-28T18:11:11.451Z,101900.73
2019-03-28T18:13:41.496Z,101903.27
2019-03-28T18:16:11.284Z,101901.39
2019-03-28T18:18:41.096Z,101897.52
2019-03-28T18:21:11.208Z,101898.53
2019-03-28T18:23:41.160Z,101891.41
2019-03-28T18:26:10.936Z,101884.95
2019-03-28T18:28:41.046Z,101890.09
2019-03-28T18:31:11.765Z,101885.45
2019-03-28T18:33:42.720Z,101886.84
2019-03-28T18:36:31.280Z,101886.09
2019-03-28T18:39:01.239Z,101884.87
2019-03-28T18:41:30.964Z,101885.27
2019-03-28T18:44:20.367Z,101881.95
2019-03-28T18:46:50.336Z,101879.59
2019-03-28T18:49:21.468Z,101874.59
2019-03-28T18:51:52.924Z,101868.11
2019-03-28T18:54:23.303Z,101867.67
2019-03-28T18:56:53.278Z,101862.36
2019-03-28T18:59:23.811Z,101859.21
2019-03-28T19:01:55.173Z,101868.08
2019-03-28T19:04:25.292Z,101859.72
2019-03-28T19:06:57.764Z,101864.11
2019-03-28T19:09:26.839Z,101861.41
2019-03-28T19:12:08.153Z,101867.23
2019-03-28T19:14:38.216Z,101864.41
2019-03-28T19:17:08.550Z,101859.83
2019-03-28T19:19:39.861Z,101861.80
2019-03-28T19:22:10.290Z,101863.98
2019-03-28T19:24:40.428Z,101864.87
2019-03-28T19:27:10.795Z,101862.12
2019-03-28T19:29:40.561Z,101855.22
2019-03-28T19:32:10.332Z,101854.58
2019-03-28T19:34:40.298Z,101850.47
2019-03-28T19:37:10.391Z,101842.25
2019-03-28T19:39:40.265Z,101831.01
2019-03-28T19:42:10.578Z,101824.52
2019-03-28T19:44:40.748Z,101811.06
2019-03-28T19:47:10.673Z,101814.64
2019-03-28T19:49:40.669Z,101806.05
2019-03-28T19:52:13.241Z,101806.02
2019-03-28T19:54:43.481Z,101803.66
2019-03-28T19:57:13.509Z,101791.97
2019-03-28T19:59:43.416Z,101791.17
2019-03-28T20:02:14.344Z,101786.59
2019-03-28T20:04:45.049Z,101790.42
2019-03-28T20:07:21.532Z,101779.37
2019-03-28T20:09:46.541Z,101778.61
2019-03-28T20:12:16.944Z,101778.48
2019-03-28T20:15:05.652Z,101770.76
2019-03-28T20:17:36.029Z,101763.33
2019-03-28T20:20:06.584Z,101763.56
2019-03-28T20:22:36.657Z,101761.92
2019-03-28T20:25:07.396Z,101756.78
2019-03-28T20:27:37.548Z,101753.31
2019-03-28T20:30:07.843Z,101751.80
2019-03-28T20:32:37.962Z,101745.09
2019-03-28T20:35:10.538Z,101744.95
2019-03-28T20:37:41.174Z,101756.30
2019-03-28T20:40:50.840Z,101758.38
2019-03-28T20:43:20.769Z,101755.93
2019-03-28T20:45:51.781Z,101765.11
2019-03-28T20:48:21.603Z,101762.99
2019-03-28T20:50:51.720Z,101772.00
2019-03-28T20:53:21.835Z,101770.15
2019-03-28T20:55:52.025Z,101770.09
2019-03-28T20:58:40.553Z,101772.31
2019-03-28T21:01:10.746Z,101767.33
2019-03-28T21:03:41.205Z,101767.90
2019-03-28T21:06:15.419Z,101768.09
2019-03-28T21:08:44.213Z,101769.11
2019-03-28T21:11:14.927Z,101766.86
2019-03-28T21:13:44.725Z,101764.88
2019-03-28T21:16:14.474Z,101758.39
2019-03-28T21:18:44.290Z,101761.02
2019-03-28T21:21:32.993Z,101760.92
2019-03-28T21:24:02.771Z,101762.34
2019-03-28T21:26:32.820Z,101762.47
2019-03-28T21:29:02.621Z,101754.24
2019-03-28T21:31:32.394Z,101754.23
2019-03-28T21:34:02.183Z,101767.44
2019-03-28T21:36:32.389Z,101772.75
2019-03-28T21:42:13.363Z,101767.00
2019-03-28T21:44:43.144Z,101768.22
2019-03-28T21:47:12.983Z,101767.58
2019-03-28T21:49:42.864Z,101772.25
2019-03-28T21:52:14.184Z,101773.03
2019-03-28T21:54:45.482Z,101764.22
2019-03-28T21:57:34.627Z,101765.29
2019-03-28T22:00:44.445Z,101761.95
2019-03-28T22:03:15.268Z,101767.03
2019-03-28T22:05:45.067Z,101760.62
2019-03-28T22:08:14.857Z,101761.19
2019-03-28T22:10:44.650Z,101752.17
2019-03-28T22:13:14.797Z,101756.31
2019-03-28T22:15:44.566Z,101756.88
2019-03-28T22:18:14.427Z,101763.48
2019-03-28T22:20:44.517Z,101766.82
2019-03-28T22:23:14.352Z,101769.32
2019-03-28T22:25:44.107Z,101771.30
2019-03-28T22:28:13.897Z,101771.92
2019-03-28T22:30:43.646Z,101774.04
2019-03-28T22:33:13.739Z,101767.57
2019-03-28T22:35:43.790Z,101768.96
2019-03-28T22:38:13.600Z,101770.21
2019-03-28T22:40:44.024Z,101775.69
2019-03-28T22:43:14.097Z,101772.20
2019-03-28T22:45:43.964Z,101780.44
2019-03-28T22:48:14.030Z,101773.22
2019-03-28T22:50:44.091Z,101764.66
2019-03-28T22:53:13.895Z,101772.84
2019-03-28T22:55:43.686Z,101775.09
2019-03-28T22:58:13.470Z,101769.20
2019-03-28T23:01:02.461Z,101762.33
2019-03-28T23:03:32.239Z,101765.33
2019-03-28T23:06:02.010Z,101768.63
2019-03-28T23:08:32.937Z,101765.17
2019-03-28T23:11:03.525Z,101766.58
2019-03-28T23:13:33.655Z,101770.61
2019-03-28T23:16:03.508Z,101773.73
2019-03-28T23:18:33.289Z,101776.23
2019-03-28T23:21:03.054Z,101777.07
2019-03-28T23:23:32.825Z,101778.77
2019-03-28T23:26:02.606Z,101780.92
2019-03-28T23:28:32.683Z,101776.92
2019-03-28T23:31:03.540Z,101777.08
2019-03-28T23:33:33.355Z,101783.56
2019-03-28T23:36:03.139Z,101783.06
2019-03-28T23:38:33.273Z,101783.38
2019-03-28T23:41:03.011Z,101790.78
2019-03-28T23:43:33.332Z,101790.13
2019-03-28T23:46:03.534Z,101785.63
2019-03-28T23:48:33.310Z,101791.16
2019-03-28T23:51:03.076Z,101795.36
2019-03-28T23:53:33.307Z,101788.35
2019-03-28T23:56:03.516Z,101798.30
2019-03-28T23:58:33.279Z,101797.51
